createdAt,value
2022-09-28T00:01:15.114Z,11.02
2022-09-28T00:03:41.774Z,13.00
2022-09-28T00:06:12.308Z,7.45
2022-09-28T00:08:39.134Z,12.35
2022-09-28T00:11:07.464Z,13.98
2022-09-28T00:13:35.244Z,18.00
2022-09-28T00:16:07.275Z,14.82
2022-09-28T00:18:35.440Z,10.82
2022-09-28T00:21:13.674Z,9.52
2022-09-28T00:24:00.296Z,12.75
2022-09-28T00:26:28.885Z,12.13
2022-09-28T00:29:00.899Z,15.82
2022-09-28T00:31:32.835Z,18.23
2022-09-28T00:34:01.513Z,10.88
2022-09-28T00:36:30.691Z,11.57
2022-09-28T00:38:58.496Z,7.25
2022-09-28T00:41:27.614Z,12.73
2022-09-28T00:44:15.131Z,12.18
2022-09-28T00:46:42.031Z,17.38
2022-09-28T00:49:15.709Z,11.98
2022-09-28T00:51:44.808Z,9.57
2022-09-28T00:54:12.853Z,13.80
2022-09-28T00:56:42.455Z,13.57
2022-09-28T00:59:09.433Z,12.15
2022-09-28T01:01:37.248Z,11.65
2022-09-28T01:04:04.983Z,11.27
2022-09-28T01:06:34.700Z,11.93
2022-09-28T01:09:07.364Z,15.55
2022-09-28T01:11:37.172Z,12.88
2022-09-28T01:14:08.734Z,6.65
2022-09-28T01:16:41.477Z,12.80
2022-09-28T01:19:44.603Z,15.38
2022-09-28T01:22:57.037Z,9.38
2022-09-28T01:25:41.935Z,13.00
2022-09-28T01:28:15.502Z,13.85
2022-09-28T01:31:03.436Z,13.45
2022-09-28T01:33:38.343Z,14.25
2022-09-28T01:36:09.664Z,6.38
2022-09-28T01:38:53.221Z,15.95
2022-09-28T01:41:22.484Z,12.48
2022-09-28T01:43:55.035Z,14.85
2022-09-28T01:46:27.469Z,16.30
2022-09-28T01:49:02.682Z,9.18
2022-09-28T01:51:43.197Z,13.48
2022-09-28T01:54:13.483Z,15.60
2022-09-28T01:56:45.070Z,13.18
2022-09-28T01:59:14.369Z,13.80
2022-09-28T02:01:45.874Z,11.00
2022-09-28T02:04:18.648Z,16.70
2022-09-28T02:06:53.641Z,15.35
2022-09-28T02:09:48.000Z,10.93
2022-09-28T02:12:32.503Z,8.57
2022-09-28T02:15:10.614Z,14.30
2022-09-28T02:17:37.445Z,12.88
2022-09-28T02:20:04.646Z,12.98
2022-09-28T02:22:43.006Z,14.52
2022-09-28T02:25:13.918Z,11.15
2022-09-28T02:27:48.112Z,19.40
2022-09-28T02:30:14.757Z,13.20
2022-09-28T02:32:48.608Z,9.95
2022-09-28T02:35:17.519Z,12.48
2022-09-28T02:37:45.146Z,17.33
2022-09-28T02:40:22.029Z,13.77
2022-09-28T02:42:48.607Z,9.02
2022-09-28T02:46:02.256Z,21.50
2022-09-28T02:49:10.507Z,14.35
2022-09-28T02:52:14.141Z,12.15
2022-09-28T02:54:46.573Z,16.13
2022-09-28T02:57:25.011Z,11.07
2022-09-28T03:00:21.337Z,14.23
2022-09-28T03:03:05.311Z,9.57
2022-09-28T03:06:10.545Z,14.65
2022-09-28T03:08:48.564Z,11.30
2022-09-28T03:11:20.628Z,17.08
2022-09-28T03:13:47.758Z,12.00
2022-09-28T03:16:17.960Z,19.40
2022-09-28T03:18:45.512Z,15.43
2022-09-28T03:21:13.335Z,17.73
2022-09-28T03:23:40.663Z,12.25
2022-09-28T03:26:13.749Z,17.67
2022-09-28T03:28:41.234Z,16.33
2022-09-28T03:31:08.047Z,7.95
2022-09-28T03:33:34.970Z,19.77
2022-09-28T03:36:01.827Z,14.68
2022-09-28T03:38:28.482Z,14.88
2022-09-28T03:40:59.565Z,10.82
2022-09-28T03:43:27.231Z,15.88
2022-09-28T03:46:03.264Z,16.23
2022-09-28T03:48:33.201Z,16.88
2022-09-28T03:51:02.520Z,14.63
2022-09-28T03:53:32.673Z,13.40
2022-09-28T03:56:14.268Z,4.30
2022-09-28T03:58:40.985Z,17.88
2022-09-28T04:01:14.158Z,15.95
2022-09-28T04:03:43.794Z,16.67
2022-09-28T04:06:10.905Z,12.82
2022-09-28T04:08:37.404Z,8.80
2022-09-28T04:11:03.951Z,9.30
2022-09-28T04:13:31.154Z,12.02
2022-09-28T04:16:00.271Z,16.83
2022-09-28T04:18:27.128Z,8.30
2022-09-28T04:21:06.875Z,19.92
2022-09-28T04:23:35.483Z,15.63
2022-09-28T04:26:04.055Z,13.90
2022-09-28T04:28:49.511Z,14.18
2022-09-28T04:31:19.455Z,14.10
2022-09-28T04:33:46.440Z,17.63
2022-09-28T04:36:13.712Z,13.80
2022-09-28T04:38:52.706Z,14.23
2022-09-28T04:41:24.809Z,13.00
2022-09-28T04:43:52.559Z,11.73
2022-09-28T04:46:19.448Z,15.35
2022-09-28T04:48:45.997Z,16.52
2022-09-28T04:51:14.225Z,18.27
2022-09-28T04:53:40.817Z,10.40
2022-09-28T04:56:12.913Z,20.08
2022-09-28T04:58:40.331Z,10.70
2022-09-28T05:01:10.826Z,15.77
2022-09-28T05:03:37.931Z,11.10
2022-09-28T05:06:07.032Z,16.63
2022-09-28T05:08:35.264Z,17.00
2022-09-28T05:11:04.672Z,15.80
2022-09-28T05:13:32.645Z,12.35
2022-09-28T05:16:04.436Z,15.07
2022-09-28T05:18:32.269Z,13.82
2022-09-28T05:20:58.964Z,15.55
2022-09-28T05:23:25.495Z,16.58
2022-09-28T05:25:52.155Z,16.00
2022-09-28T05:28:26.258Z,12.82
2022-09-28T05:30:53.275Z,16.20
2022-09-28T05:33:20.599Z,17.05
2022-09-28T05:35:52.489Z,15.10
2022-09-28T05:38:20.714Z,14.43
2022-09-28T05:40:47.433Z,18.35
2022-09-28T05:43:14.311Z,17.73
2022-09-28T05:45:40.995Z,18.85
2022-09-28T05:48:07.514Z,14.02
2022-09-28T05:50:51.182Z,17.40
2022-09-28T05:53:17.849Z,17.02
2022-09-28T05:55:44.458Z,12.30
2022-09-28T05:58:11.365Z,13.45
2022-09-28T06:00:40.080Z,17.77
2022-09-28T06:03:10.398Z,17.20
2022-09-28T06:05:38.789Z,22.35
2022-09-28T06:08:07.311Z,23.17
2022-09-28T06:10:34.529Z,20.70
2022-09-28T06:13:01.471Z,16.05
2022-09-28T06:15:30.807Z,13.20
2022-09-28T06:17:59.306Z,15.65
2022-09-28T06:20:27.705Z,16.90
2022-09-28T06:22:54.858Z,19.95
2022-09-28T06:25:23.200Z,16.50
2022-09-28T06:28:03.304Z,18.65
2022-09-28T06:30:32.076Z,22.08
2022-09-28T06:33:00.011Z,19.25
2022-09-28T06:35:28.680Z,17.80
2022-09-28T06:37:55.313Z,13.40
2022-09-28T06:40:23.338Z,14.32
2022-09-28T06:43:09.940Z,20.17
2022-09-28T06:45:37.679Z,20.45
2022-09-28T06:48:05.352Z,16.90
2022-09-28T06:50:35.986Z,17.38
2022-09-28T06:53:03.216Z,22.48
2022-09-28T06:55:30.005Z,22.17
2022-09-28T06:57:59.153Z,16.15
2022-09-28T07:00:31.258Z,21.42
2022-09-28T07:02:57.953Z,31.27
2022-09-28T07:05:27.448Z,19.73
2022-09-28T07:07:55.332Z,22.63
2022-09-28T07:10:23.898Z,22.52
2022-09-28T07:12:54.943Z,29.88
2022-09-28T07:15:21.924Z,27.35
2022-09-28T07:17:59.860Z,30.05
2022-09-28T07:20:29.089Z,21.88
2022-09-28T07:22:58.746Z,22.42
2022-09-28T07:25:32.397Z,19.35
2022-09-28T07:27:59.873Z,25.23
2022-09-28T07:30:28.207Z,20.73
2022-09-28T07:32:55.178Z,19.40
2022-09-28T07:35:22.565Z,21.65
2022-09-28T07:37:49.726Z,20.40
2022-09-28T07:40:34.763Z,14.85
2022-09-28T07:43:07.512Z,20.65
2022-09-28T07:45:36.693Z,23.85
2022-09-28T07:48:03.868Z,17.95
2022-09-28T07:50:30.915Z,22.33
2022-09-28T07:52:58.183Z,23.02
2022-09-28T07:55:25.242Z,17.70
2022-09-28T07:58:01.689Z,20.48
2022-09-28T08:00:33.965Z,20.60
2022-09-28T08:03:02.411Z,28.95
2022-09-28T08:05:32.170Z,23.83
2022-09-28T08:07:59.802Z,16.75
2022-09-28T08:10:26.829Z,26.38
2022-09-28T08:13:08.800Z,21.25
2022-09-28T08:15:37.122Z,19.85
2022-09-28T08:18:07.085Z,21.90
2022-09-28T08:20:53.119Z,20.27
2022-09-28T08:23:20.580Z,14.63
2022-09-28T08:25:52.596Z,24.60
2022-09-28T08:28:20.000Z,19.50
2022-09-28T08:30:47.442Z,17.58
2022-09-28T08:33:15.733Z,20.70
2022-09-28T08:35:42.322Z,22.00
2022-09-28T08:38:10.145Z,17.60
2022-09-28T08:40:55.624Z,21.70
2022-09-28T08:43:41.448Z,20.80
2022-09-28T08:46:11.357Z,17.48
2022-09-28T08:49:13.444Z,20.60
2022-09-28T08:51:44.001Z,22.50
2022-09-28T08:54:36.823Z,23.13
2022-09-28T08:57:15.564Z,24.65
2022-09-28T08:59:48.879Z,22.83
2022-09-28T09:02:22.497Z,24.38
2022-09-28T09:04:51.676Z,26.05
2022-09-28T09:07:45.968Z,26.75
2022-09-28T09:10:28.601Z,24.50
2022-09-28T09:13:14.943Z,23.58
2022-09-28T09:15:55.221Z,29.42
2022-09-28T09:18:37.234Z,22.30
2022-09-28T09:21:15.688Z,29.35
2022-09-28T09:23:51.622Z,23.17
2022-09-28T09:26:24.999Z,32.90
2022-09-28T09:29:14.478Z,26.45
2022-09-28T09:31:53.171Z,23.90
2022-09-28T09:34:25.638Z,26.20
2022-09-28T09:37:08.379Z,22.40
2022-09-28T09:39:51.339Z,21.08
2022-09-28T09:42:33.912Z,22.30
2022-09-28T09:45:39.782Z,17.67
2022-09-28T09:48:40.244Z,22.48
2022-09-28T09:51:18.173Z,17.58
2022-09-28T09:54:10.459Z,27.20
2022-09-28T09:56:45.435Z,21.75
2022-09-28T09:59:15.895Z,15.32
2022-09-28T10:01:42.832Z,15.32
2022-09-28T10:04:20.590Z,13.45
2022-09-28T10:06:49.880Z,20.05
2022-09-28T10:09:39.636Z,12.77
2022-09-28T10:12:11.136Z,15.63
2022-09-28T10:14:37.953Z,16.27
2022-09-28T10:17:05.349Z,13.93
2022-09-28T10:19:34.023Z,15.55
2022-09-28T10:22:04.002Z,21.35
2022-09-28T10:24:35.401Z,9.65
2022-09-28T10:27:08.071Z,14.48
2022-09-28T10:29:42.352Z,12.35
2022-09-28T10:32:26.748Z,14.68
2022-09-28T10:35:11.004Z,13.45
2022-09-28T10:37:56.483Z,21.40
2022-09-28T10:40:31.951Z,15.15
2022-09-28T10:43:33.794Z,16.77
2022-09-28T10:46:07.988Z,17.63
2022-09-28T10:48:57.862Z,20.73
2022-09-28T10:51:46.669Z,14.20
2022-09-28T10:54:19.012Z,13.98
2022-09-28T10:56:46.130Z,23.50
2022-09-28T10:59:31.549Z,13.60
2022-09-28T11:02:02.752Z,16.42
2022-09-28T11:04:39.084Z,14.25
2022-09-28T11:07:18.744Z,13.45
2022-09-28T11:09:51.792Z,7.93
2022-09-28T11:12:24.993Z,9.90
2022-09-28T11:15:09.835Z,11.57
2022-09-28T11:17:38.916Z,7.78
2022-09-28T11:20:38.878Z,5.50
2022-09-28T11:23:23.135Z,4.10
2022-09-28T11:26:06.619Z,2.35
2022-09-28T11:28:38.364Z,4.53
2022-09-28T11:31:08.089Z,8.43
2022-09-28T11:33:48.176Z,5.00
2022-09-28T11:36:14.620Z,10.93
2022-09-28T11:38:47.504Z,6.13
2022-09-28T11:41:51.760Z,4.80
2022-09-28T11:44:20.886Z,11.48
2022-09-28T11:46:53.840Z,2.45
2022-09-28T11:49:20.268Z,9.57
2022-09-28T11:51:50.800Z,4.43
2022-09-28T11:54:33.702Z,7.90
2022-09-28T11:57:04.337Z,4.80
2022-09-28T11:59:38.806Z,2.33
2022-09-28T12:02:29.989Z,5.07
2022-09-28T12:05:33.513Z,3.83
2022-09-28T12:08:13.463Z,5.13
2022-09-28T12:10:55.467Z,4.70
2022-09-28T12:13:33.019Z,4.78
2022-09-28T12:18:57.510Z,9.15
2022-09-28T12:21:45.518Z,4.78
2022-09-28T12:24:28.657Z,6.10
2022-09-28T12:27:10.467Z,6.32
2022-09-28T12:29:47.608Z,7.70
2022-09-28T12:32:35.718Z,4.72
2022-09-28T12:35:03.374Z,6.28
2022-09-28T12:38:01.438Z,3.63
2022-09-28T12:40:57.707Z,6.47
2022-09-28T12:43:28.999Z,4.90
2022-09-28T12:46:18.814Z,5.05
2022-09-28T12:49:51.535Z,3.55
2022-09-28T12:51:57.672Z,4.60
2022-09-28T12:55:03.979Z,4.00
2022-09-28T12:57:45.109Z,2.47
2022-09-28T13:00:16.045Z,3.72
2022-09-28T13:02:49.581Z,7.43
2022-09-28T13:05:16.342Z,7.60
2022-09-28T13:08:00.114Z,3.38
2022-09-28T13:10:33.826Z,6.75
2022-09-28T13:13:19.079Z,3.13
2022-09-28T13:15:48.539Z,3.85
2022-09-28T13:18:44.558Z,1.73
2022-09-28T13:21:34.689Z,11.93
2022-09-28T13:24:27.931Z,2.88
2022-09-28T13:26:56.926Z,7.07
2022-09-28T13:29:27.529Z,2.78
2022-09-28T13:31:58.171Z,6.07
2022-09-28T13:34:32.026Z,3.10
2022-09-28T13:37:17.024Z,3.63
2022-09-28T13:39:52.206Z,6.50
2022-09-28T13:42:53.085Z,6.25
2022-09-28T13:45:22.912Z,2.95
2022-09-28T13:48:00.270Z,6.15
2022-09-28T13:51:04.445Z,3.88
2022-09-28T13:53:37.145Z,3.22
2022-09-28T13:56:23.392Z,2.92
2022-09-28T13:59:15.844Z,4.55
2022-09-28T14:01:56.384Z,3.65
2022-09-28T14:04:45.272Z,2.67
2022-09-28T14:10:44.524Z,4.53
2022-09-28T14:13:12.175Z,7.07
2022-09-28T14:15:42.285Z,5.97
2022-09-28T14:18:19.189Z,5.07
2022-09-28T14:21:29.436Z,3.63
2022-09-28T14:24:20.299Z,4.30
2022-09-28T14:26:53.216Z,8.37
2022-09-28T14:29:30.150Z,6.45
2022-09-28T14:32:03.557Z,6.22
2022-09-28T14:34:34.371Z,8.27
2022-09-28T14:37:22.064Z,5.68
2022-09-28T14:40:07.697Z,5.93
2022-09-28T14:42:34.317Z,2.22
2022-09-28T14:45:06.607Z,7.47
2022-09-28T14:47:37.903Z,7.18
2022-09-28T14:50:27.684Z,6.63
2022-09-28T14:52:57.120Z,4.82
2022-09-28T14:55:40.800Z,2.90
2022-09-28T14:58:19.041Z,8.70
2022-09-28T15:00:47.240Z,9.45
2022-09-28T15:03:14.767Z,8.73
2022-09-28T15:05:49.831Z,5.95
2022-09-28T15:08:21.027Z,6.47
2022-09-28T15:10:50.716Z,6.82
2022-09-28T15:13:28.562Z,4.15
2022-09-28T15:16:03.695Z,3.33
2022-09-28T15:19:04.648Z,7.85
2022-09-28T15:21:36.971Z,4.53
2022-09-28T15:24:03.708Z,9.60
2022-09-28T15:26:34.240Z,2.67
2022-09-28T15:29:04.268Z,2.90
2022-09-28T15:31:35.726Z,2.20
2022-09-28T15:36:47.732Z,2.50
2022-09-28T15:39:20.919Z,5.47
2022-09-28T15:41:50.327Z,3.13
2022-09-28T15:44:37.242Z,5.47
2022-09-28T15:47:23.919Z,3.38
2022-09-28T15:49:58.669Z,3.58
2022-09-28T15:52:28.427Z,6.72
2022-09-28T15:54:55.590Z,5.25
2022-09-28T15:57:40.029Z,4.57
2022-09-28T16:00:24.695Z,4.60
2022-09-28T16:03:20.795Z,5.30
2022-09-28T16:05:57.920Z,7.55
2022-09-28T16:08:36.518Z,6.40
2022-09-28T16:11:16.850Z,3.83
2022-09-28T16:14:06.204Z,3.97
2022-09-28T16:16:43.291Z,5.47
2022-09-28T16:19:24.307Z,6.78
2022-09-28T16:21:59.431Z,6.72
2022-09-28T16:24:31.759Z,7.15
2022-09-28T16:27:02.920Z,6.55
2022-09-28T16:29:41.428Z,5.75
2022-09-28T16:32:35.304Z,7.72
2022-09-28T16:35:19.700Z,9.63
2022-09-28T16:37:49.789Z,6.20
2022-09-28T16:40:16.669Z,4.28
2022-09-28T16:42:48.836Z,6.40
2022-09-28T16:45:27.906Z,4.30
2022-09-28T16:47:58.453Z,6.50
2022-09-28T16:50:25.742Z,10.97
2022-09-28T16:53:34.899Z,8.55
2022-09-28T16:56:03.018Z,8.70
2022-09-28T16:58:31.572Z,8.40
2022-09-28T17:03:33.196Z,4.13
2022-09-28T17:06:04.786Z,5.53
2022-09-28T17:11:24.739Z,6.95
2022-09-28T17:13:52.519Z,6.38
2022-09-28T17:16:36.750Z,7.25
2022-09-28T17:19:18.612Z,3.58
2022-09-28T17:21:45.783Z,4.88
2022-09-28T17:24:12.380Z,6.88
2022-09-28T17:26:40.240Z,8.48
2022-09-28T17:29:09.856Z,6.15
2022-09-28T17:31:36.350Z,4.47
2022-09-28T17:34:03.182Z,4.88
2022-09-28T17:36:30.472Z,4.90
2022-09-28T17:38:57.349Z,6.47
2022-09-28T17:41:24.246Z,4.93
2022-09-28T17:43:50.961Z,4.47
2022-09-28T17:46:34.203Z,4.30
2022-09-28T17:49:03.050Z,4.18
2022-09-28T17:51:32.367Z,2.47
2022-09-28T17:54:01.006Z,3.70
2022-09-28T17:56:32.125Z,4.20
2022-09-28T18:01:30.163Z,5.63
2022-09-28T18:03:56.903Z,4.97
2022-09-28T18:06:23.889Z,5.00
2022-09-28T18:08:50.574Z,4.35
2022-09-28T18:11:21.046Z,5.32
2022-09-28T18:13:47.684Z,6.28
2022-09-28T18:16:14.777Z,5.10
2022-09-28T18:18:42.834Z,5.40
2022-09-28T18:21:09.712Z,5.82
2022-09-28T18:23:38.351Z,7.55
2022-09-28T18:26:19.022Z,6.13
2022-09-28T18:28:47.043Z,7.80
2022-09-28T18:31:15.708Z,7.60
2022-09-28T18:33:44.200Z,14.10
2022-09-28T18:36:10.949Z,8.52
2022-09-28T18:38:38.524Z,7.80
2022-09-28T18:41:16.519Z,5.00
2022-09-28T18:43:49.059Z,5.28
2022-09-28T18:46:23.263Z,4.25
2022-09-28T18:48:53.246Z,8.07
2022-09-28T18:51:21.889Z,7.28
2022-09-28T18:53:48.558Z,10.63
2022-09-28T18:56:18.306Z,4.55
2022-09-28T18:58:46.313Z,6.70
2022-09-28T19:01:29.958Z,9.20
2022-09-28T19:04:02.069Z,7.20
2022-09-28T19:06:30.047Z,8.32
2022-09-28T19:08:58.428Z,9.63
2022-09-28T19:11:25.672Z,7.50
2022-09-28T19:13:54.709Z,6.07
2022-09-28T19:16:26.210Z,7.22
2022-09-28T19:18:53.770Z,7.13
2022-09-28T19:21:21.071Z,8.23
2022-09-28T19:23:49.944Z,5.07
2022-09-28T19:26:22.752Z,7.22
2022-09-28T19:28:50.393Z,5.35
2022-09-28T19:31:18.052Z,7.35
2022-09-28T19:33:46.362Z,3.53
2022-09-28T19:36:24.020Z,6.95
2022-09-28T19:39:03.508Z,5.90
2022-09-28T19:41:44.336Z,7.53
2022-09-28T19:44:25.391Z,5.32
2022-09-28T19:47:12.857Z,5.23
2022-09-28T19:49:40.846Z,4.18
2022-09-28T19:52:16.386Z,7.60
2022-09-28T19:54:45.141Z,7.30
2022-09-28T19:57:19.641Z,6.07
2022-09-28T19:59:52.519Z,16.35
2022-09-28T20:02:21.424Z,9.02
2022-09-28T20:04:48.724Z,7.90
2022-09-28T20:07:15.622Z,4.40
2022-09-28T20:09:43.789Z,4.68
2022-09-28T20:12:11.238Z,7.53
2022-09-28T20:14:40.106Z,10.85
2022-09-28T20:17:07.454Z,5.15
2022-09-28T20:19:35.164Z,3.72
2022-09-28T20:22:03.182Z,9.93
2022-09-28T20:24:31.272Z,3.42
2022-09-28T20:26:58.434Z,4.47
2022-09-28T20:29:25.282Z,4.13
2022-09-28T20:31:52.292Z,5.32
2022-09-28T20:34:20.247Z,8.27
2022-09-28T20:36:48.831Z,3.58
2022-09-28T20:39:16.838Z,4.90
2022-09-28T20:41:43.880Z,4.10
2022-09-28T20:44:14.336Z,3.70
2022-09-28T20:46:45.593Z,6.22
2022-09-28T20:49:13.059Z,7.80
2022-09-28T20:51:43.169Z,3.08
2022-09-28T20:54:10.036Z,3.40
2022-09-28T20:56:39.191Z,6.03
2022-09-28T20:59:14.984Z,5.25
2022-09-28T21:01:43.743Z,4.55
2022-09-28T21:04:12.707Z,3.50
2022-09-28T21:06:42.230Z,5.03
2022-09-28T21:09:13.370Z,5.43
2022-09-28T21:11:40.486Z,7.15
2022-09-28T21:14:10.639Z,6.63
2022-09-28T21:16:39.820Z,7.03
2022-09-28T21:19:08.344Z,8.57
2022-09-28T21:21:39.621Z,5.53
2022-09-28T21:24:06.819Z,6.45
2022-09-28T21:26:37.048Z,5.85
2022-09-28T21:29:12.385Z,4.53
2022-09-28T21:31:47.093Z,4.72
2022-09-28T21:34:21.848Z,11.25
2022-09-28T21:36:51.665Z,11.07
2022-09-28T21:39:21.950Z,6.70
2022-09-28T21:41:52.370Z,5.18
2022-09-28T21:44:19.072Z,8.25
2022-09-28T21:46:48.522Z,5.95
2022-09-28T21:49:15.965Z,6.53
2022-09-28T21:51:44.971Z,6.45
2022-09-28T21:54:15.597Z,5.47
2022-09-28T21:56:47.494Z,4.80
2022-09-28T21:59:14.058Z,4.32
2022-09-28T22:01:42.688Z,6.45
2022-09-28T22:04:10.861Z,8.35
2022-09-28T22:06:40.014Z,3.88
2022-09-28T22:09:08.133Z,6.07
2022-09-28T22:11:36.948Z,11.02
2022-09-28T22:14:03.725Z,4.70
2022-09-28T22:16:32.133Z,6.80
2022-09-28T22:19:16.252Z,12.32
2022-09-28T22:21:45.613Z,4.25
2022-09-28T22:24:14.154Z,7.40
2022-09-28T22:26:42.605Z,10.40
2022-09-28T22:29:13.184Z,10.88
2022-09-28T22:31:42.030Z,12.45
2022-09-28T22:34:14.973Z,17.27
2022-09-28T22:36:55.149Z,16.40
2022-09-28T22:39:24.652Z,17.13
2022-09-28T22:41:54.894Z,15.50
2022-09-28T22:44:24.107Z,17.45
2022-09-28T22:46:55.661Z,15.10
2022-09-28T22:49:29.553Z,19.33
2022-09-28T22:51:56.335Z,16.55
2022-09-28T22:54:29.923Z,17.95
2022-09-28T22:57:00.248Z,20.75
2022-09-28T22:59:27.900Z,12.05
2022-09-28T23:01:58.552Z,18.65
2022-09-28T23:04:27.666Z,16.37
2022-09-28T23:06:54.271Z,18.40
2022-09-28T23:09:20.886Z,17.05
2022-09-28T23:11:47.652Z,19.33
2022-09-28T23:14:14.279Z,16.10
2022-09-28T23:16:41.410Z,21.70
2022-09-28T23:19:08.157Z,18.02
2022-09-28T23:21:34.708Z,15.98
2022-09-28T23:24:01.630Z,19.30
2022-09-28T23:26:31.263Z,19.77
2022-09-28T23:28:59.517Z,24.42
2022-09-28T23:31:28.676Z,26.88
2022-09-28T23:34:06.500Z,28.90
2022-09-28T23:36:34.127Z,15.18
2022-09-28T23:39:01.128Z,21.90
2022-09-28T23:41:28.197Z,19.92
2022-09-28T23:43:54.932Z,14.45
2022-09-28T23:46:21.725Z,23.45
2022-09-28T23:48:49.137Z,18.23
2022-09-28T23:51:15.764Z,19.02
2022-09-28T23:53:43.719Z,16.98
2022-09-28T23:56:10.399Z,22.33
2022-09-28T23:58:37.226Z,22.40
